Terminal Aerodrome Forecast
Issued by NWS Mt. Holly, NJ

Home | Current Version | Previous Version | Text Only | Print | Product List | Glossary On
Versions: 1 2 3 4 5 6 7 8 9 10 11 12 13 14 15 16 17 18
785
FTUS41 KPHI 121725
TAFRDG
TAF
KRDG 121725Z 1218/1318 25009KT P6SM OVC060
     FM122200 28015G25KT P6SM BKN060
     FM130000 29020G32KT P6SM SCT060
     FM130900 28015G25KT P6SM SKC=

USA.gov is the U.S. government's official web portal to all federal, state and local government web resources and services.